Time;durP1;ratioP1;P1;durP2;ratioP2;P2;SDS_P1;SDS_P2;PMS_P1;PMS_P2;Temp;Humidity;BMP_temperature;BMP_pressure;BME280_temperature;BME280_humidity;BME280_pressure;Samples;Min_cycle;Max_cycle;Signal;HPM_P1;HPM_P2
2022/12/06 00:01:59;;;;;;;48.70;21.70;;;;;;;3.68;100.00;99542.83;101975;1359;22328;-31
2022/12/06 00:04:25;;;;;;;48.30;23.60;;;;;;;3.64;100.00;99532.55;102037;1359;22660;-34
2022/12/06 00:06:50;;;;;;;31.80;17.60;;;;;;;3.68;100.00;99531.42;101824;1358;22736;-30
2022/12/06 00:09:18;;;;;;;48.50;19.00;;;;;;;3.66;100.00;99526.82;101975;1359;22734;-34
2022/12/06 00:11:43;;;;;;;47.10;19.90;;;;;;;3.68;100.00;99524.70;102042;1359;22662;-30
2022/12/06 00:14:09;;;;;;;48.70;21.10;;;;;;;3.70;100.00;99520.28;101937;1374;22289;-30
2022/12/06 00:16:35;;;;;;;39.60;16.30;;;;;;;3.71;100.00;99521.59;101991;1362;22164;-33
2022/12/06 00:19:00;;;;;;;42.80;18.90;;;;;;;3.71;100.00;99526.70;102044;1378;22653;-34
2022/12/06 00:21:28;;;;;;;94.90;31.90;;;;;;;3.74;100.00;99530.14;101928;1360;22249;-34
2022/12/06 00:23:56;;;;;;;118.80;38.10;;;;;;;3.75;100.00;99524.42;102004;1366;22208;-34
2022/12/06 00:26:22;;;;;;;98.30;33.50;;;;;;;3.78;100.00;99522.02;101925;1359;22211;-34
2022/12/06 00:28:47;;;;;;;63.50;25.10;;;;;;;3.80;100.00;99520.02;102010;1359;22457;-30
2022/12/06 00:31:15;;;;;;;50.70;23.40;;;;;;;3.79;100.00;99513.46;102041;1376;22258;-34
2022/12/06 00:33:40;;;;;;;126.90;43.30;;;;;;;3.78;100.00;99518.30;101903;1359;22294;-31
2022/12/06 00:36:10;;;;;;;73.40;22.30;;;;;;;3.73;100.00;99520.17;102010;1359;22670;-30
2022/12/06 00:38:35;;;;;;;197.40;55.00;;;;;;;3.71;100.00;99518.75;101960;1360;23070;-34
2022/12/06 00:41:03;;;;;;;108.70;34.80;;;;;;;3.71;100.00;99515.61;101578;1359;24287;-34
2022/12/06 00:43:29;;;;;;;115.30;37.80;;;;;;;3.70;100.00;99520.74;101636;1357;22328;-34
2022/12/06 00:45:55;;;;;;;99.90;35.70;;;;;;;3.73;100.00;99518.02;102015;1359;22182;-31
2022/12/06 00:48:20;;;;;;;92.70;34.90;;;;;;;3.75;100.00;99516.31;101933;1359;22578;-35
2022/12/06 00:50:46;;;;;;;390.70;98.70;;;;;;;3.78;100.00;99516.90;101536;1357;23899;-34
2022/12/06 00:53:11;;;;;;;293.20;66.30;;;;;;;3.77;100.00;99518.05;101944;1377;22675;-34
2022/12/06 00:55:37;;;;;;;189.60;55.90;;;;;;;3.78;100.00;99517.60;101822;1376;22632;-34
2022/12/06 00:58:02;;;;;;;103.00;42.70;;;;;;;3.80;100.00;99519.30;101974;1355;22499;-30
2022/12/06 01:00:28;;;;;;;70.60;26.10;;;;;;;3.80;100.00;99520.17;101971;1359;24395;-34
2022/12/06 01:02:53;;;;;;;67.20;30.60;;;;;;;3.82;100.00;99523.23;101966;1377;22601;-34
2022/12/06 01:05:19;;;;;;;85.60;40.90;;;;;;;3.85;100.00;99523.41;101949;1361;22647;-34
2022/12/06 01:07:45;;;;;;;64.90;31.50;;;;;;;3.86;100.00;99520.00;101615;1358;22576;-34
2022/12/06 01:10:10;;;;;;;92.10;43.30;;;;;;;3.84;100.00;99513.41;102006;1359;22320;-34
2022/12/06 01:12:36;;;;;;;62.60;31.00;;;;;;;3.83;100.00;99510.91;101972;1359;22206;-30
2022/12/06 01:15:01;;;;;;;70.50;25.60;;;;;;;3.78;100.00;99510.48;102009;1357;23435;-30
2022/12/06 01:17:27;;;;;;;56.70;26.60;;;;;;;3.77;100.00;99502.75;101965;1358;22312;-30
2022/12/06 01:19:52;;;;;;;47.20;18.00;;;;;;;3.77;100.00;99500.52;102017;1359;22950;-30
2022/12/06 01:22:17;;;;;;;57.20;29.00;;;;;;;3.76;100.00;99500.39;101922;1377;22358;-34
2022/12/06 01:24:43;;;;;;;123.00;54.70;;;;;;;3.74;100.00;99495.48;101902;1378;22324;-35
2022/12/06 01:27:09;;;;;;;87.80;39.40;;;;;;;3.73;100.00;99497.00;101992;1376;22743;-31
2022/12/06 01:29:34;;;;;;;70.90;27.80;;;;;;;3.71;100.00;99493.83;101944;1377;22180;-31
2022/12/06 01:32:01;;;;;;;77.20;33.20;;;;;;;3.70;100.00;99487.88;101956;1359;22354;-35
2022/12/06 01:34:26;;;;;;;77.50;40.70;;;;;;;3.67;100.00;99482.90;101721;1366;22631;-35
2022/12/06 01:36:52;;;;;;;64.50;30.10;;;;;;;3.60;100.00;99479.60;101669;1371;22312;-35
2022/12/06 01:39:19;;;;;;;57.70;26.10;;;;;;;3.55;100.00;99476.27;101926;1359;22247;-35
2022/12/06 01:41:44;;;;;;;43.40;21.60;;;;;;;3.47;100.00;99473.62;101936;1368;22184;-35
2022/12/06 01:44:17;;;;;;;46.30;21.20;;;;;;;3.41;100.00;99465.55;101974;1359;22616;-32
2022/12/06 01:46:43;;;;;;;40.80;19.90;;;;;;;3.36;100.00;99460.05;102004;1368;22525;-31
2022/12/06 01:49:16;;;;;;;45.70;20.00;;;;;;;3.30;100.00;99456.23;101855;1360;22697;-32
2022/12/06 01:51:44;;;;;;;39.90;20.90;;;;;;;3.27;100.00;99450.66;101972;1374;22625;-35
2022/12/06 01:54:11;;;;;;;48.60;24.90;;;;;;;3.21;100.00;99447.52;101960;1378;23215;-31
2022/12/06 01:56:37;;;;;;;40.00;18.50;;;;;;;3.16;100.00;99444.46;101963;1377;22480;-35
2022/12/06 01:59:02;;;;;;;51.20;20.40;;;;;;;3.14;100.00;99438.67;102073;1357;22281;-31
2022/12/06 02:01:28;;;;;;;46.50;20.70;;;;;;;3.10;100.00;99434.48;101743;1359;22150;-37
2022/12/06 02:03:55;;;;;;;51.10;22.20;;;;;;;3.06;100.00;99434.64;101963;1360;22714;-36
2022/12/06 02:06:21;;;;;;;38.50;18.10;;;;;;;3.00;100.00;99431.11;102023;1359;22352;-35
2022/12/06 02:08:46;;;;;;;58.00;25.40;;;;;;;2.97;100.00;99432.13;101937;1355;22377;-32
2022/12/06 02:11:12;;;;;;;66.70;33.10;;;;;;;2.94;100.00;99427.16;101966;1359;22745;-36
2022/12/06 02:13:38;;;;;;;153.60;75.70;;;;;;;2.91;100.00;99427.26;101997;1371;22615;-32
2022/12/06 02:16:11;;;;;;;84.00;43.20;;;;;;;2.87;100.00;99424.95;101911;1374;22621;-32
2022/12/06 02:18:44;;;;;;;47.30;21.30;;;;;;;2.84;100.00;99429.90;101874;1359;22281;-36
2022/12/06 02:21:15;;;;;;;238.50;111.80;;;;;;;2.83;100.00;99428.94;101900;1374;22278;-32
2022/12/06 02:23:46;;;;;;;81.70;45.70;;;;;;;2.83;100.00;99416.34;101945;1359;22338;-32
2022/12/06 02:26:19;;;;;;;45.20;23.10;;;;;;;2.84;100.00;99410.05;102025;1360;22618;-36
2022/12/06 02:28:50;;;;;;;54.00;27.60;;;;;;;2.83;100.00;99407.33;102018;1365;22488;-36
2022/12/06 02:31:21;;;;;;;244.70;119.90;;;;;;;2.81;100.00;99406.23;102026;1375;22255;-32
2022/12/06 02:33:52;;;;;;;113.50;54.00;;;;;;;2.78;100.00;99403.52;102009;1378;22630;-32
2022/12/06 02:36:24;;;;;;;170.30;81.60;;;;;;;2.74;100.00;99406.89;101630;1357;482565;-36
2022/12/06 02:38:52;;;;;;;83.90;40.60;;;;;;;2.70;100.00;99405.31;102001;1368;23464;-36
2022/12/06 02:41:22;;;;;;;82.40;42.60;;;;;;;2.69;100.00;99409.14;101941;1359;22584;-32
2022/12/06 02:43:52;;;;;;;70.60;38.40;;;;;;;2.72;100.00;99412.39;101916;1356;22329;-32
2022/12/06 02:46:18;;;;;;;259.30;96.90;;;;;;;2.78;100.00;99421.52;101585;1360;22600;-32
2022/12/06 02:48:44;;;;;;;418.30;124.80;;;;;;;2.81;100.00;99415.98;101501;1357;22625;-37
2022/12/06 02:51:12;;;;;;;956.30;295.40;;;;;;;2.80;100.00;99406.13;102047;1377;22281;-37
2022/12/06 02:53:38;;;;;;;616.60;210.10;;;;;;;2.79;100.00;99399.12;101930;1358;22154;-36
2022/12/06 02:56:04;;;;;;;1022.20;384.60;;;;;;;2.78;100.00;99391.30;101993;1359;22366;-36
2022/12/06 02:58:34;;;;;;;245.50;78.70;;;;;;;2.78;100.00;99392.41;101777;1359;22618;-33
2022/12/06 03:01:00;;;;;;;76.10;36.40;;;;;;;2.82;100.00;99394.67;102096;1357;22127;-36
2022/12/06 03:03:33;;;;;;;135.50;56.90;;;;;;;2.87;100.00;99394.73;101941;1359;22701;-36
2022/12/06 03:06:09;;;;;;;629.10;275.90;;;;;;;2.90;100.00;99389.15;101917;1367;22628;-32
2022/12/06 03:08:42;;;;;;;581.20;253.90;;;;;;;2.89;100.00;99387.63;102123;1359;22281;-36
2022/12/06 03:11:07;;;;;;;280.80;80.90;;;;;;;2.86;100.00;99385.64;101962;1368;22976;-36
2022/12/06 03:13:42;;;;;;;135.30;53.90;;;;;;;2.83;100.00;99381.36;101980;1368;22300;-36
2022/12/06 03:16:12;;;;;;;352.60;128.90;;;;;;;2.84;100.00;99377.20;101524;1377;22648;-32
2022/12/06 03:18:43;;;;;;;220.80;87.00;;;;;;;2.84;100.00;99372.23;101989;1359;22418;-32
2022/12/06 03:21:11;;;;;;;359.80;146.10;;;;;;;2.83;100.00;99373.37;101994;1360;22291;-36
2022/12/06 03:23:40;;;;;;;272.60;111.40;;;;;;;2.83;100.00;99374.30;101977;1359;22197;-36
2022/12/06 03:26:05;;;;;;;78.60;35.70;;;;;;;2.84;100.00;99370.46;101983;1362;22327;-36
2022/12/06 03:28:31;;;;;;;138.00;67.40;;;;;;;2.88;100.00;99375.75;101572;1377;24217;-32
2022/12/06 03:30:58;;;;;;;79.20;39.00;;;;;;;2.92;100.00;99379.71;101997;1355;22358;-36
2022/12/06 03:33:24;;;;;;;45.80;24.00;;;;;;;2.96;100.00;99379.20;101937;1374;22316;-36
2022/12/06 03:35:51;;;;;;;40.20;17.50;;;;;;;2.98;100.00;99383.70;101939;1359;22674;-36
2022/12/06 03:38:20;;;;;;;41.40;22.40;;;;;;;3.01;100.00;99382.17;102001;1358;22304;-36
2022/12/06 03:40:47;;;;;;;38.10;19.60;;;;;;;3.06;100.00;99383.89;101850;1349;22306;-36
2022/12/06 03:43:12;;;;;;;38.50;20.30;;;;;;;3.09;100.00;99385.54;101912;1356;25115;-36
2022/12/06 03:45:42;;;;;;;34.80;17.40;;;;;;;3.10;100.00;99386.34;101830;1377;22633;-36
2022/12/06 03:48:10;;;;;;;40.10;18.30;;;;;;;3.11;100.00;99386.96;101977;1359;22292;-32
2022/12/06 03:50:39;;;;;;;35.90;17.30;;;;;;;3.07;100.00;99387.28;101844;1359;22648;-36
2022/12/06 03:53:04;;;;;;;53.00;22.00;;;;;;;3.09;100.00;99382.91;101854;1358;22645;-34
2022/12/06 03:55:30;;;;;;;30.90;17.20;;;;;;;3.09;100.00;99374.95;101855;1377;23073;-36
2022/12/06 03:57:56;;;;;;;79.70;37.50;;;;;;;3.10;100.00;99367.02;101625;1357;22620;-32
2022/12/06 04:00:21;;;;;;;378.00;206.30;;;;;;;3.07;100.00;99368.37;101722;1357;22619;-33
2022/12/06 04:02:47;;;;;;;281.50;147.70;;;;;;;3.07;100.00;99369.27;101954;1359;22310;-33
2022/12/06 04:05:12;;;;;;;186.40;87.40;;;;;;;3.09;100.00;99372.56;101857;1355;22161;-33
2022/12/06 04:07:38;;;;;;;234.60;92.70;;;;;;;3.08;100.00;99369.35;101898;1378;22729;-33
2022/12/06 04:10:04;;;;;;;304.20;121.70;;;;;;;3.08;100.00;99367.55;101844;1359;22617;-33
2022/12/06 04:15:00;;;;;;;71.50;28.60;;;;;;;3.08;100.00;99351.00;101893;1359;22348;-36
2022/12/06 04:19:55;;;;;;;51.70;24.40;;;;;;;3.00;100.00;99342.67;101969;1355;22632;-36
2022/12/06 04:24:49;;;;;;;118.20;52.80;;;;;;;3.03;100.00;99346.98;101632;1376;22259;-32
2022/12/06 04:39:40;;;;;;;73.80;33.20;;;;;;;3.18;100.00;99345.00;101946;1378;22295;-32
2022/12/06 04:44:34;;;;;;;61.40;29.70;;;;;;;3.19;100.00;99341.23;101987;1359;22651;-32
2022/12/06 04:47:00;;;;;;;60.60;27.00;;;;;;;3.21;100.00;99340.32;102053;1359;22296;-33
2022/12/06 04:49:25;;;;;;;64.30;27.30;;;;;;;3.20;100.00;99337.92;101986;1359;22322;-36
2022/12/06 04:51:52;;;;;;;96.10;41.20;;;;;;;3.19;100.00;99334.47;101975;1359;22728;-33
2022/12/06 04:54:19;;;;;;;104.80;47.30;;;;;;;3.16;100.00;99330.83;102010;1375;22438;-36
2022/12/06 04:56:44;;;;;;;115.80;44.20;;;;;;;3.11;100.00;99329.95;102016;1358;24318;-36
2022/12/06 04:59:10;;;;;;;58.50;26.70;;;;;;;2.99;100.00;99324.19;101995;1378;22637;-36
2022/12/06 05:01:36;;;;;;;62.30;30.40;;;;;;;2.90;100.00;99330.45;101961;1359;22280;-33
2022/12/06 05:04:01;;;;;;;72.60;31.10;;;;;;;2.83;100.00;99332.92;101993;1359;22268;-37
2022/12/06 05:06:27;;;;;;;64.00;28.90;;;;;;;2.78;100.00;99336.71;102005;1360;22270;-33
2022/12/06 05:08:52;;;;;;;52.50;23.90;;;;;;;2.72;100.00;99338.52;101942;1359;22618;-37
2022/12/06 05:11:18;;;;;;;51.60;21.10;;;;;;;2.67;100.00;99341.83;101925;1367;22712;-37
2022/12/06 05:13:43;;;;;;;33.90;16.80;;;;;;;2.68;100.00;99342.64;102008;1359;22651;-37
2022/12/06 05:16:09;;;;;;;33.60;17.90;;;;;;;2.70;100.00;99343.65;101938;1349;22590;-37
2022/12/06 05:18:34;;;;;;;69.70;29.80;;;;;;;2.74;100.00;99342.91;101921;1359;22270;-37
2022/12/06 05:21:01;;;;;;;56.70;23.10;;;;;;;2.67;100.00;99338.15;102005;1359;22281;-37
2022/12/06 05:23:27;;;;;;;46.30;22.60;;;;;;;2.59;100.00;99335.52;101956;1358;22480;-37
2022/12/06 05:25:57;;;;;;;63.50;29.30;;;;;;;2.60;100.00;99333.45;102032;1359;22630;-37
2022/12/06 05:28:22;;;;;;;44.90;22.90;;;;;;;2.45;100.00;99333.73;101900;1359;22288;-37
2022/12/06 05:30:48;;;;;;;54.70;25.70;;;;;;;2.32;100.00;99337.43;101947;1358;22379;-37
2022/12/06 05:33:14;;;;;;;43.50;20.50;;;;;;;2.25;100.00;99344.92;101915;1357;22641;-37
2022/12/06 05:35:39;;;;;;;;;;;;;;;2.25;100.00;99347.21;101848;1359;22142;-37
2022/12/06 05:38:05;;;;;;;67.10;28.00;;;;;;;2.32;100.00;99350.13;102045;1378;22679;-34
2022/12/06 05:40:30;;;;;;;53.90;26.00;;;;;;;2.26;100.00;99348.23;101973;1359;22333;-33
2022/12/06 05:42:56;;;;;;;56.10;23.10;;;;;;;2.20;100.00;99350.35;101883;1359;22221;-34
2022/12/06 05:45:22;;;;;;;59.30;26.80;;;;;;;2.20;100.00;99351.58;101887;1374;22147;-37
2022/12/06 05:47:48;;;;;;;53.60;23.20;;;;;;;2.16;100.00;99354.13;102013;1359;22618;-37
2022/12/06 05:50:14;;;;;;;56.10;25.00;;;;;;;2.13;100.00;99353.89;101689;1378;22243;-34
2022/12/06 05:52:40;;;;;;;52.90;26.70;;;;;;;2.10;100.00;99356.77;102066;1375;22254;-33
2022/12/06 05:55:06;;;;;;;52.20;25.80;;;;;;;2.08;100.00;99361.94;101959;1373;22488;-33
2022/12/06 05:57:32;;;;;;;46.30;21.80;;;;;;;2.11;100.00;99366.89;101949;1355;22222;-37
2022/12/06 05:59:57;;;;;;;46.60;23.30;;;;;;;2.09;100.00;99364.86;102156;1359;22471;-37
2022/12/06 06:02:23;;;;;;;51.60;21.20;;;;;;;2.12;100.00;99369.31;101972;1359;22276;-33
2022/12/06 06:04:48;;;;;;;61.40;27.60;;;;;;;2.13;100.00;99370.42;101937;1359;22371;-34
2022/12/06 06:07:14;;;;;;;42.70;20.90;;;;;;;2.09;100.00;99372.40;101240;1373;22612;-33
2022/12/06 06:09:39;;;;;;;61.90;25.00;;;;;;;2.12;100.00;99375.84;101487;1378;22282;-37
2022/12/06 06:12:05;;;;;;;58.60;25.40;;;;;;;2.16;100.00;99381.52;101904;1359;22271;-37
2022/12/06 06:14:31;;;;;;;48.40;19.70;;;;;;;2.16;100.00;99388.88;101902;1362;22629;-33
2022/12/06 06:16:56;;;;;;;39.30;20.00;;;;;;;2.13;100.00;99393.60;101975;1358;22285;-33
2022/12/06 06:19:23;;;;;;;25.10;12.80;;;;;;;2.14;100.00;99398.59;101806;1359;22142;-34
2022/12/06 06:21:49;;;;;;;31.60;17.00;;;;;;;2.20;100.00;99404.05;101950;1359;22134;-37
2022/12/06 06:24:15;;;;;;;36.30;19.10;;;;;;;2.22;100.00;99412.88;101860;1359;22643;-37
2022/12/06 06:26:41;;;;;;;30.90;15.10;;;;;;;2.25;100.00;99416.16;102009;1369;22186;-37
2022/12/06 06:29:06;;;;;;;27.30;15.00;;;;;;;2.25;100.00;99412.73;101846;1358;24279;-33
2022/12/06 06:31:32;;;;;;;25.80;13.10;;;;;;;2.32;100.00;99418.83;101876;1378;22499;-37
2022/12/06 06:33:57;;;;;;;31.80;15.50;;;;;;;2.34;100.00;99416.52;101952;1359;22439;-34
2022/12/06 06:36:23;;;;;;;31.40;16.20;;;;;;;2.37;100.00;99420.69;101920;1367;22351;-37
2022/12/06 06:38:48;;;;;;;41.20;19.90;;;;;;;2.39;100.00;99412.60;101979;1359;22302;-38
2022/12/06 06:41:14;;;;;;;27.80;12.50;;;;;;;2.32;100.00;99409.83;101938;1359;22728;-34
2022/12/06 06:43:39;;;;;;;31.80;12.90;;;;;;;2.33;100.00;99412.39;102069;1358;22619;-37
2022/12/06 06:46:05;;;;;;;29.70;13.10;;;;;;;2.38;100.00;99413.38;101990;1359;22494;-37
2022/12/06 06:48:33;;;;;;;34.60;17.00;;;;;;;2.41;100.00;99411.86;101959;1378;22644;-34
2022/12/06 06:51:02;;;;;;;38.60;18.00;;;;;;;2.36;100.00;99405.20;101939;1355;22637;-33
2022/12/06 06:53:28;;;;;;;42.50;20.30;;;;;;;2.32;100.00;99403.98;101617;1359;22592;-34
2022/12/06 06:55:54;;;;;;;24.70;12.70;;;;;;;2.31;100.00;99401.98;101966;1358;22441;-34
2022/12/06 06:58:20;;;;;;;23.50;9.60;;;;;;;2.29;100.00;99400.55;102000;1359;22151;-38
2022/12/06 07:00:45;;;;;;;35.90;14.90;;;;;;;2.38;100.00;99410.86;101960;1359;22291;-34
2022/12/06 07:03:14;;;;;;;36.40;16.60;;;;;;;2.37;100.00;99416.14;101965;1359;22620;-34
2022/12/06 07:05:39;;;;;;;37.80;18.40;;;;;;;2.37;100.00;99419.64;101969;1359;22517;-38
2022/12/06 07:08:05;;;;;;;35.60;16.30;;;;;;;2.36;100.00;99418.52;101844;1378;22130;-38
2022/12/06 07:10:31;;;;;;;41.40;17.80;;;;;;;2.24;100.00;99408.23;102031;1346;22678;-37
2022/12/06 07:12:56;;;;;;;38.70;19.30;;;;;;;2.10;100.00;99404.44;102031;1359;22524;-38
2022/12/06 07:15:22;;;;;;;41.50;20.40;;;;;;;2.14;100.00;99412.79;101990;1358;22621;-37
2022/12/06 07:17:47;;;;;;;44.80;19.60;;;;;;;2.20;100.00;99414.65;101974;1358;22175;-38
2022/12/06 07:20:13;;;;;;;45.20;21.80;;;;;;;2.25;100.00;99421.41;101954;1359;22155;-37
2022/12/06 07:22:39;;;;;;;30.70;15.40;;;;;;;2.26;100.00;99424.51;101965;1359;22584;-38
2022/12/06 07:25:04;;;;;;;25.40;13.90;;;;;;;2.16;100.00;99419.98;101961;1378;22726;-37
2022/12/06 07:30:04;;;;;;;27.10;14.30;;;;;;;2.16;100.00;99424.20;101602;1363;25365;-34
2022/12/06 07:32:33;;;;;;;35.70;17.60;;;;;;;2.17;100.00;99423.08;101942;1377;22301;-34
2022/12/06 07:34:59;;;;;;;43.70;19.80;;;;;;;2.15;100.00;99423.11;101966;1360;22822;-38
2022/12/06 07:37:24;;;;;;;29.90;14.10;;;;;;;2.15;100.00;99423.61;101922;1359;22680;-36
2022/12/06 07:39:50;;;;;;;48.40;20.20;;;;;;;2.15;100.00;99424.66;101946;1356;22260;-34
2022/12/06 07:47:13;;;;;;;32.30;16.90;;;;;;;2.14;100.00;99425.09;102076;1356;22404;-37
2022/12/06 07:49:39;;;;;;;27.50;13.50;;;;;;;2.18;100.00;99431.14;101991;1359;22506;-37
2022/12/06 07:52:04;;;;;;;28.00;13.30;;;;;;;2.24;100.00;99438.49;102044;1359;22210;-37
2022/12/06 07:54:30;;;;;;;39.60;19.90;;;;;;;2.29;100.00;99444.20;101982;1359;22250;-33
2022/12/06 07:56:55;;;;;;;38.00;20.30;;;;;;;2.35;100.00;99444.68;101952;1359;22263;-34
2022/12/06 07:59:21;;;;;;;29.70;17.10;;;;;;;2.39;100.00;99445.58;101656;1359;22155;-37
2022/12/06 08:01:46;;;;;;;27.10;14.80;;;;;;;2.31;100.00;99442.61;101907;1359;22190;-37
2022/12/06 08:04:12;;;;;;;30.70;16.20;;;;;;;2.25;100.00;99430.10;101998;1374;22331;-34
2022/12/06 08:06:38;;;;;;;27.30;13.80;;;;;;;2.23;100.00;99426.05;101952;1357;22506;-33
2022/12/06 08:09:04;;;;;;;24.10;12.70;;;;;;;2.20;100.00;99422.04;101940;1360;22316;-37
2022/12/06 08:11:30;;;;;;;31.90;14.80;;;;;;;2.19;100.00;99427.15;102007;1356;22670;-33
2022/12/06 08:13:55;;;;;;;40.40;20.00;;;;;;;2.20;100.00;99430.17;102015;1377;22603;-37
2022/12/06 08:16:21;;;;;;;34.40;16.10;;;;;;;2.25;100.00;99432.35;101981;1360;22259;-37
2022/12/06 08:18:46;;;;;;;32.80;14.60;;;;;;;2.32;100.00;99433.83;101928;1358;22650;-34
2022/12/06 08:21:12;;;;;;;30.50;15.60;;;;;;;2.39;100.00;99435.15;101956;1359;22199;-34
2022/12/06 08:23:38;;;;;;;51.60;24.20;;;;;;;2.47;100.00;99430.37;101937;1359;22635;-37
2022/12/06 08:26:06;;;;;;;30.10;14.70;;;;;;;2.49;100.00;99428.16;102010;1355;22264;-33
2022/12/06 08:28:32;;;;;;;38.80;19.80;;;;;;;2.51;100.00;99421.48;101930;1359;22499;-36
2022/12/06 08:30:58;;;;;;;28.70;11.80;;;;;;;2.44;100.00;99413.34;102003;1365;22196;-37
2022/12/06 08:33:23;;;;;;;39.40;20.20;;;;;;;2.34;100.00;99410.58;101935;1360;22307;-36
2022/12/06 08:35:50;;;;;;;32.00;15.30;;;;;;;2.31;100.00;99408.86;101906;1359;22683;-33
2022/12/06 08:38:15;;;;;;;25.90;14.50;;;;;;;2.41;100.00;99407.40;101831;1359;22617;-34
2022/12/06 08:40:41;;;;;;;41.10;16.40;;;;;;;2.44;100.00;99403.46;101880;1359;22169;-34
2022/12/06 08:43:07;;;;;;;46.60;22.70;;;;;;;2.46;100.00;99403.42;102046;1377;22359;-37
2022/12/06 08:45:32;;;;;;;47.50;22.40;;;;;;;2.49;100.00;99400.61;102017;1375;22437;-37
2022/12/06 08:47:58;;;;;;;52.20;23.00;;;;;;;2.54;100.00;99396.95;101933;1355;22344;-37
2022/12/06 08:50:23;;;;;;;40.30;18.50;;;;;;;2.56;100.00;99391.86;101929;1375;22170;-33
2022/12/06 08:52:49;;;;;;;32.50;17.60;;;;;;;2.52;100.00;99383.33;101979;1359;22446;-37
2022/12/06 08:55:14;;;;;;;50.10;23.10;;;;;;;2.56;100.00;99381.92;101950;1359;22605;-37
2022/12/06 08:57:40;;;;;;;38.30;17.70;;;;;;;2.53;100.00;99380.65;102059;1350;22629;-35
2022/12/06 09:00:06;;;;;;;47.60;24.30;;;;;;;2.58;100.00;99373.63;101934;1367;22264;-33
2022/12/06 09:02:32;;;;;;;34.60;19.70;;;;;;;2.58;100.00;99369.05;101957;1367;22407;-37
2022/12/06 09:04:58;;;;;;;49.30;23.10;;;;;;;2.62;100.00;99370.10;101945;1359;22606;-37
2022/12/06 09:07:25;;;;;;;37.90;17.40;;;;;;;2.65;100.00;99370.80;101439;1359;22625;-36
2022/12/06 09:09:53;;;;;;;32.30;16.90;;;;;;;2.62;100.00;99369.50;101975;1359;22633;-34
2022/12/06 09:12:19;;;;;;;44.90;20.70;;;;;;;2.72;100.00;99379.38;101722;1356;22645;-33
2022/12/06 09:14:44;;;;;;;36.50;17.20;;;;;;;2.70;100.00;99372.66;101907;1359;22635;-33
2022/12/06 09:17:10;;;;;;;41.60;17.10;;;;;;;2.73;100.00;99371.86;101701;1375;22732;-33
2022/12/06 09:19:36;;;;;;;41.10;18.80;;;;;;;2.79;100.00;99371.10;101909;1358;22279;-37
2022/12/06 09:22:01;;;;;;;35.20;17.90;;;;;;;2.78;100.00;99367.84;101978;1359;22703;-34
2022/12/06 09:24:27;;;;;;;42.00;20.20;;;;;;;2.72;100.00;99368.38;101899;1369;22616;-37
2022/12/06 09:26:52;;;;;;;33.80;17.50;;;;;;;2.72;100.00;99363.27;101898;1365;22514;-37
2022/12/06 09:29:18;;;;;;;26.60;15.10;;;;;;;2.74;100.00;99360.23;101975;1359;22155;-34
2022/12/06 09:31:45;;;;;;;44.30;18.40;;;;;;;2.77;100.00;99355.70;101989;1363;22314;-34
2022/12/06 09:34:11;;;;;;;42.50;17.30;;;;;;;2.66;100.00;99353.11;102027;1368;22259;-36
2022/12/06 09:36:41;;;;;;;46.30;21.30;;;;;;;2.61;100.00;99355.81;102036;1359;22409;-37
2022/12/06 09:39:10;;;;;;;39.00;14.70;;;;;;;2.64;100.00;99356.77;101912;1359;22154;-37
2022/12/06 09:42:02;;;;;;;26.10;13.50;;;;;;;2.65;100.00;99356.38;102049;1357;22142;-36
2022/12/06 09:44:31;;;;;;;44.20;20.10;;;;;;;2.70;100.00;99356.41;101932;1377;22317;-37
2022/12/06 09:47:04;;;;;;;26.10;12.80;;;;;;;2.66;100.00;99348.61;101954;1359;22690;-34
2022/12/06 09:49:34;;;;;;;53.10;20.40;;;;;;;2.66;100.00;99346.18;101984;1359;22616;-33
2022/12/06 09:52:04;;;;;;;30.60;15.20;;;;;;;2.64;100.00;99340.66;101992;1376;22452;-33
2022/12/06 09:54:37;;;;;;;38.20;17.30;;;;;;;2.63;100.00;99333.78;101923;1376;22280;-37
2022/12/06 09:57:07;;;;;;;46.50;21.30;;;;;;;2.59;100.00;99329.00;101922;1359;22729;-33
2022/12/06 09:59:37;;;;;;;36.50;16.60;;;;;;;2.47;100.00;99324.34;101927;1358;22216;-33
2022/12/06 10:02:09;;;;;;;51.60;24.10;;;;;;;2.47;100.00;99330.11;101620;1359;25449;-36
2022/12/06 10:04:38;;;;;;;32.40;17.10;;;;;;;2.53;100.00;99330.12;101784;1377;23306;-33
2022/12/06 10:07:14;;;;;;;33.30;16.10;;;;;;;2.56;100.00;99330.30;101868;1350;22166;-37
2022/12/06 10:09:44;;;;;;;44.90;19.10;;;;;;;2.49;100.00;99321.99;101890;1359;22611;-37
2022/12/06 10:12:17;;;;;;;44.80;17.40;;;;;;;2.54;100.00;99323.63;102036;1359;22439;-35
2022/12/06 10:14:51;;;;;;;16.80;8.20;;;;;;;2.56;100.00;99325.19;102096;1378;22709;-33
2022/12/06 10:17:34;;;;;;;32.00;15.10;;;;;;;2.48;100.00;99315.20;101919;1359;22466;-37
2022/12/06 10:20:04;;;;;;;40.60;17.20;;;;;;;2.40;100.00;99308.05;101966;1377;22630;-33
2022/12/06 10:22:34;;;;;;;22.50;11.80;;;;;;;2.34;100.00;99305.75;101907;1357;22616;-37
2022/12/06 10:25:23;;;;;;;22.80;11.60;;;;;;;2.28;100.00;99300.62;101960;1378;22603;-37
2022/12/06 10:27:57;;;;;;;27.10;11.30;;;;;;;2.18;100.00;99290.55;102029;1359;22520;-37
2022/12/06 10:30:23;;;;;;;20.60;12.00;;;;;;;2.14;100.00;99286.69;101993;1375;22904;-37
2022/12/06 10:32:52;;;;;;;31.80;11.70;;;;;;;2.17;100.00;99290.20;102130;1362;22302;-34
2022/12/06 10:35:22;;;;;;;31.80;16.20;;;;;;;2.08;100.00;99287.05;101969;1359;22129;-37
2022/12/06 10:37:52;;;;;;;24.40;12.30;;;;;;;2.12;100.00;99289.69;101409;1375;504714;-34
2022/12/06 10:40:29;;;;;;;34.00;15.30;;;;;;;2.20;100.00;99293.84;102013;1370;22307;-37
2022/12/06 10:43:01;;;;;;;31.50;14.20;;;;;;;2.25;100.00;99293.19;101961;1356;22624;-38
2022/12/06 10:47:58;;;;;;;28.80;14.60;;;;;;;2.28;100.00;99284.42;101908;1377;22958;-37
2022/12/06 10:50:26;;;;;;;23.40;13.00;;;;;;;2.29;100.00;99278.46;101929;1359;22704;-37
2022/12/06 10:52:57;;;;;;;32.70;15.80;;;;;;;2.23;100.00;99272.86;101946;1359;22426;-33
2022/12/06 10:55:25;;;;;;;20.90;10.40;;;;;;;2.16;100.00;99264.71;101983;1358;22351;-33
2022/12/06 10:57:57;;;;;;;24.00;11.10;;;;;;;2.09;100.00;99260.29;101956;1359;22461;-35
2022/12/06 11:00:24;;;;;;;19.00;9.00;;;;;;;2.00;100.00;99259.69;101915;1377;22176;-37
2022/12/06 11:02:51;;;;;;;;;;;;;;;1.89;100.00;99259.06;101632;1378;23076;-32
2022/12/06 11:05:21;;;;;;;20.40;10.70;;;;;;;1.93;100.00;99262.73;101877;1374;22319;-36
2022/12/06 11:07:47;;;;;;;22.80;11.10;;;;;;;1.85;100.00;99266.73;101921;1360;22321;-36
2022/12/06 11:10:18;;;;;;;22.70;10.40;;;;;;;1.90;100.00;99267.71;101961;1369;23017;-35
2022/12/06 11:12:44;;;;;;;21.80;11.70;;;;;;;1.97;100.00;99270.63;101977;1371;22667;-36
2022/12/06 11:15:16;;;;;;;21.50;8.90;;;;;;;1.90;100.00;99275.16;101926;1375;22322;-33
2022/12/06 11:17:44;;;;;;;13.00;5.70;;;;;;;1.91;100.00;99274.16;101926;1377;23005;-33
2022/12/06 11:20:20;;;;;;;15.80;9.60;;;;;;;1.91;100.00;99269.44;102008;1359;22627;-36
2022/12/06 11:22:49;;;;;;;19.90;10.60;;;;;;;1.97;100.00;99267.91;101961;1359;22641;-33
2022/12/06 11:25:20;;;;;;;16.50;7.90;;;;;;;1.97;100.00;99266.86;101980;1360;22465;-32
2022/12/06 11:27:49;;;;;;;7.90;5.00;;;;;;;2.03;100.00;99272.29;102020;1358;22441;-36
2022/12/06 11:30:16;;;;;;;15.50;8.20;;;;;;;2.08;100.00;99269.55;102044;1362;22404;-32
2022/12/06 11:32:42;;;;;;;12.70;6.40;;;;;;;2.07;100.00;99268.58;102000;1375;22192;-36
2022/12/06 11:35:12;;;;;;;19.80;9.80;;;;;;;2.09;100.00;99266.45;101954;1378;22622;-36
2022/12/06 11:37:37;;;;;;;13.90;8.50;;;;;;;2.07;100.00;99261.72;101685;1377;22302;-36
2022/12/06 11:40:07;;;;;;;16.40;7.00;;;;;;;1.95;100.00;99255.94;101949;1375;22312;-36
2022/12/06 11:42:33;;;;;;;15.40;8.60;;;;;;;1.99;100.00;99254.14;101994;1359;22629;-36